Koutalianos — A8WZ2 — position and weather

sailwx.info

Track history (hours):
 
Tides and Currents Weather Stations Pressure Air Temp Water Temp Dewpoint Dewpoint Depression Visibility Wind Speed Wind Dir Waves Ship Positions

Koutalianos

Last reported at 2018-Jul-23 11:30 UTC. Time now 2018-Jul-23 11:52 UTC.
Position N 51°54' E 003°29'.

Length 230 m; draft 13.3 m.

Type: Cargo ship. MMSI: 636014865.

Date/timePositionNaut miles runAvg speedWind from/ knotsBaromVisibWave heightAir tempDewpointWater temp
2018-Jul-23 11:30N 51°54' E 003°29'0 0.0
2018-Jul-23 11:00N 51°54' E 003°29'0 0.0
2018-Jul-23 10:30N 51°54' E 003°29'0 0.0
2018-Jul-23 10:00N 51°54' E 003°29'0 0.0
2018-Jul-23 09:30N 51°54' E 003°29'0 0.0
2018-Jul-23 09:00N 51°54' E 003°29'0 0.1
2018-Jul-23 08:30N 51°54' E 003°29'0 0.2
2018-Jul-23 08:00N 51°54' E 003°29'0 0.2
2018-Jul-23 07:30N 51°54' E 003°28'0 0.1
2018-Jul-23 07:00N 51°54' E 003°28'0 0.0
2018-Jul-23 06:30N 51°54' E 003°28'0 0.0
2018-Jul-23 06:00N 51°54' E 003°28'0 0.0
2018-Jul-23 05:30N 51°54' E 003°28'0 0.0
2018-Jul-23 04:57N 51°54' E 003°28'0 0.0
2018-Jul-23 04:30N 51°54' E 003°28'0 0.0
2018-Jul-23 04:00N 51°54' E 003°28'0 0.0
2018-Jul-23 03:30N 51°54' E 003°28'0 0.1
2018-Jul-23 03:00N 51°54' E 003°28'0 0.2
2018-Jul-23 02:30N 51°54' E 003°28'0 0.1
2018-Jul-23 02:00N 51°54' E 003°28'0 0.1
2018-Jul-23 01:30N 51°54' E 003°29'0 0.0
2018-Jul-23 01:00N 51°54' E 003°29'0 0.0
2018-Jul-23 00:27N 51°54' E 003°29'0 0.0
2018-Jul-23 00:00N 51°54' E 003°29'0 0.0
2018-Jul-22 23:30N 51°54' E 003°29'0 0.0
2018-Jul-22 22:51N 51°54' E 003°29'0 0.0
2018-Jul-22 22:24N 51°54' E 003°29'0 0.0
2018-Jul-22 22:00N 51°54' E 003°29'0 0.0
2018-Jul-22 21:27N 51°54' E 003°29'0 0.0
2018-Jul-22 21:00N 51°54' E 003°29'0 0.0
2018-Jul-22 20:27N 51°54' E 003°29'0 0.2
2018-Jul-22 19:57N 51°54' E 003°29'0 0.2
2018-Jul-22 19:30N 51°54' E 003°28'0 0.1
2018-Jul-22 19:00N 51°54' E 003°28'0 0.0
2018-Jul-22 18:30N 51°54' E 003°28'0 0.0
2018-Jul-22 18:00N 51°54' E 003°28'0 0.0
2018-Jul-22 17:30N 51°54' E 003°28'0 0.0
2018-Jul-22 17:00N 51°54' E 003°28'0 0.0
2018-Jul-22 16:30N 51°54' E 003°28'0 0.0
2018-Jul-22 16:00N 51°54' E 003°28'0 0.0
2018-Jul-22 15:00N 51°54' E 003°28'0 0.0
2018-Jul-22 14:30N 51°54' E 003°28'0 0.2
2018-Jul-22 14:00N 51°54' E 003°28'0 0.3
2018-Jul-22 13:30N 51°54' E 003°28'0 0.0
2018-Jul-22 13:00N 51°54' E 003°29'0 0.0
2018-Jul-22 12:27N 51°54' E 003°29'0 0.0
2018-Jul-22 11:57N 51°54' E 003°29'0 0.0
2018-Jul-22 11:27N 51°54' E 003°29'0 0.0
2018-Jul-22 10:57N 51°54' E 003°29'0 0.0
2018-Jul-22 10:27N 51°54' E 003°29'0 0.0
2018-Jul-22 09:54N 51°54' E 003°29'0 0.0
2018-Jul-22 09:24N 51°54' E 003°29'0 0.0
2018-Jul-22 09:00N 51°54' E 003°29'0 0.0
2018-Jul-22 08:27N 51°54' E 003°29'0 0.0
2018-Jul-22 08:00N 51°54' E 003°29'0 0.1
2018-Jul-22 07:30N 51°54' E 003°29'0 0.2
2018-Jul-22 07:00N 51°54' E 003°29'0 0.2
2018-Jul-22 06:30N 51°54' E 003°28'0 0.1
2018-Jul-22 06:00N 51°54' E 003°28'0 0.0
2018-Jul-22 05:30N 51°54' E 003°28'0 0.0
2018-Jul-22 05:00N 51°54' E 003°28'0 0.1
2018-Jul-22 04:30N 51°54' E 003°28'1 1.2
2018-Jul-22 04:00N 51°54' E 003°27'2 3.3
2018-Jul-22 03:30N 51°54' E 003°25'3 6.3
2018-Jul-22 03:00N 51°54' E 003°20'5 9.7
2018-Jul-22 02:30N 51°52' E 003°12'4 7.7
2018-Jul-22 02:00N 51°52' E 003°06'4 7.8
2018-Jul-22 01:30N 51°51' E 002°60'4 8.0
2018-Jul-22 01:00N 51°50' E 002°54'4 8.2
2018-Jul-22 00:30N 51°49' E 002°47'4 8.3
2018-Jul-22 00:00N 51°47' E 002°41'4 8.2
2018-Jul-21 23:30N 51°45' E 002°36'4 8.3
2018-Jul-21 23:00N 51°42' E 002°30'4 8.6
2018-Jul-21 22:29N 51°39' E 002°25'4 8.9
2018-Jul-21 22:00N 51°36' E 002°21'5 9.1
2018-Jul-21 21:30N 51°32' E 002°16'5 9.3
2018-Jul-21 21:00N 51°29' E 002°11'5 9.4
2018-Jul-21 20:30N 51°25' E 002°06'5 9.3
2018-Jul-21 20:00N 51°22' E 002°01'5 9.4
2018-Jul-21 19:30N 51°18' E 001°56'5 9.4
2018-Jul-21 19:00N 51°15' E 001°51'5 9.4
2018-Jul-21 18:30N 51°11' E 001°46'5 9.2
2018-Jul-21 18:00N 51°07' E 001°42'5 9.3
2018-Jul-21 17:30N 51°03' E 001°39'510.2
2018-Jul-21 17:00N 50°59' E 001°34'510.4
2018-Jul-21 16:30N 50°55' E 001°29'5 9.8
2018-Jul-21 16:00N 50°51' E 001°25'4 8.9
2018-Jul-21 15:30N 50°46' E 001°23'4 8.4
2018-Jul-21 15:00N 50°42' E 001°21'4 8.8
2018-Jul-21 14:30N 50°39' E 001°16'9 8.7
2018-Jul-21 13:30N 50°33' E 001°06'4 8.8
2018-Jul-21 13:00N 50°31' E 001°00'4 8.7
2018-Jul-21 12:30N 50°29' E 000°54'4 8.7
2018-Jul-21 12:00N 50°28' E 000°47'5 9.3
2018-Jul-21 11:30N 50°27' E 000°40'6 9.3
2018-Jul-21 10:51N 50°25' E 000°31'5 9.1
2018-Jul-21 10:19N 50°23' E 000°24'3 9.0
2018-Jul-21 09:56N 50°22' E 000°19'4 8.9
2018-Jul-21 09:29N 50°21' E 000°13'4 8.7
2018-Jul-21 09:00N 50°20' E 000°06'4 8.4
2018-Jul-21 08:30N 50°19' E 000°00'4 8.4
2018-Jul-21 08:00N 50°18' W 000°06'4 8.5
2018-Jul-21 07:30N 50°17' W 000°13'4 8.6
2018-Jul-21 07:00N 50°16' W 000°19'4 8.5
2018-Jul-21 06:29N 50°14' W 000°26'4 8.5
2018-Jul-21 06:00N 50°14' W 000°32'5 9.0
2018-Jul-21 05:28N 50°12' W 000°39'4 9.6
2018-Jul-21 05:00N 50°11' W 000°46'6610.9
2018-Jul-20 22:57N 49°54' W 002°25'5 9.3
2018-Jul-20 22:24N 49°52' W 002°33'4 8.7
2018-Jul-20 21:57N 49°51' W 002°39'4 8.4
2018-Jul-20 21:31N 49°50' W 002°44'4 8.3
2018-Jul-20 21:00N 49°49' W 002°50'4 8.0
2018-Jul-20 20:30N 49°48' W 002°56'4 8.0
2018-Jul-20 20:00N 49°47' W 003°02'4 8.0
2018-Jul-20 19:30N 49°47' W 003°08'4 8.0
2018-Jul-20 19:00N 49°47' W 003°15'4 8.1
2018-Jul-20 18:30N 49°46' W 003°21'4 8.1
2018-Jul-20 18:00N 49°46' W 003°27'4 8.2
2018-Jul-20 17:30N 49°47' W 003°33'4 8.5
2018-Jul-20 17:00N 49°48' W 003°40'4 8.3
2018-Jul-20 16:30N 49°49' W 003°46'10 8.5
2018-Jul-20 15:17N 49°50' W 004°02'2 8.8
2018-Jul-20 15:00N 49°51' W 004°06'11 8.9
2018-Jul-20 13:50N 49°51' W 004°22'3 9.1
2018-Jul-20 13:30N 49°51' W 004°26'23 1.7
2018-Jul-19 23:57N 49°53' W 005°02'0 0.0
2018-Jul-19 22:57N 49°53' W 005°02'0 0.1
2018-Jul-19 21:39N 49°53' W 005°02'0 0.0
2018-Jul-19 21:30N 49°53' W 005°02'0 0.2
2018-Jul-19 20:57N 49°53' W 005°02'0 0.0
2018-Jul-19 14:21N 49°53' W 005°03'0 0.0
2018-Jul-19 01:15N 49°53' W 005°03'0 0.3
2018-Jul-19 01:00N 49°53' W 005°03'0 0.0
2018-Jul-18 18:57N 49°53' W 005°02'0 0.0
2018-Jul-18 12:27N 49°53' W 005°02'0 0.0
2018-Jul-18 00:03N 49°53' W 005°03'0 0.4
2018-Jul-17 23:57N 49°53' W 005°03'0 0.0
2018-Jul-17 11:24N 49°53' W 005°02'0 0.0
2018-Jul-17 04:18N 49°53' W 005°03'0 0.0
2018-Jul-17 04:00N 49°53' W 005°03'0 0.0
2018-Jul-16 23:24N 49°53' W 005°03'0 0.4
2018-Jul-16 22:57N 49°53' W 005°02'0 0.2
2018-Jul-16 22:00N 49°53' W 005°02'0 0.1
2018-Jul-16 21:27N 49°53' W 005°02'0 0.0
2018-Jul-16 11:06N 49°53' W 005°03'0 0.3
2018-Jul-16 10:57N 49°53' W 005°03'0 0.0
2018-Jul-16 04:57N 49°53' W 005°03'0 0.1
2018-Jul-16 03:36N 49°53' W 005°03'0 0.1
2018-Jul-16 03:15N 49°53' W 005°03'0 0.1
2018-Jul-16 03:00N 49°53' W 005°03'0 0.0
2018-Jul-16 02:30N 49°53' W 005°03'0 0.0
2018-Jul-16 02:00N 49°53' W 005°03'0 0.1
2018-Jul-16 01:30N 49°53' W 005°03'0 0.0
2018-Jul-16 00:57N 49°53' W 005°03'0 0.1
2018-Jul-16 00:24N 49°53' W 005°03'0 0.1
2018-Jul-15 23:57N 49°53' W 005°03'0 0.0
2018-Jul-15 23:18N 49°53' W 005°03'0 0.0
2018-Jul-15 23:00N 49°53' W 005°03'0 0.1
2018-Jul-15 22:30N 49°53' W 005°03'0 0.2
2018-Jul-15 21:03N 49°53' W 005°02'0 0.1
2018-Jul-15 16:09N 49°53' W 005°03'0 0.1
2018-Jul-15 15:51N 49°53' W 005°03'0 0.0
2018-Jul-15 12:24N 49°53' W 005°03'0 0.0
2018-Jul-15 12:00N 49°53' W 005°03'0 0.0
2018-Jul-15 11:27N 49°53' W 005°03'0 0.1
2018-Jul-15 10:09N 49°53' W 005°03'0 0.3
2018-Jul-15 09:57N 49°53' W 005°02'0 0.3
2018-Jul-15 09:27N 49°53' W 005°02'0 0.1
2018-Jul-15 08:54N 49°53' W 005°02'0 0.1
2018-Jul-15 08:30N 49°53' W 005°02'0 0.0
2018-Jul-15 06:54N 49°53' W 005°02'0 0.1
2018-Jul-15 06:30N 49°53' W 005°02'0 0.0
2018-Jul-15 05:42N 49°53' W 005°02'0 0.1
2018-Jul-15 05:30N 49°53' W 005°02'0 0.1
2018-Jul-15 04:51N 49°53' W 005°02'0 0.3
2018-Jul-15 04:24N 49°53' W 005°03'0 0.2
2018-Jul-15 03:57N 49°53' W 005°03'0 0.1
2018-Jul-15 03:30N 49°53' W 005°03'0 0.1
2018-Jul-15 03:00N 49°53' W 005°03'0 0.1
2018-Jul-15 02:27N 49°53' W 005°03'0 0.0
2018-Jul-15 02:00N 49°53' W 005°03'0 0.1
2018-Jul-15 01:30N 49°53' W 005°03'0 0.0
2018-Jul-15 00:54N 49°53' W 005°03'0 0.1
2018-Jul-15 00:24N 49°53' W 005°03'0 0.0
2018-Jul-15 00:00N 49°53' W 005°03'0 0.0
2018-Jul-14 23:27N 49°53' W 005°03'0 0.0
2018-Jul-14 23:00N 49°53' W 005°03'0 0.0
2018-Jul-14 22:30N 49°53' W 005°03'0 0.2
2018-Jul-14 20:57N 49°53' W 005°02'0 0.2
2018-Jul-14 20:30N 49°53' W 005°02'0 0.1
2018-Jul-14 20:00N 49°53' W 005°02'0 0.1
2018-Jul-14 12:57N 49°53' W 005°03'0 0.1
2018-Jul-14 08:39N 49°53' W 005°02'0 0.0
2018-Jul-14 04:21N 49°53' W 005°02'0 0.1
2018-Jul-14 03:45N 49°53' W 005°03'0 0.3
2018-Jul-14 03:24N 49°53' W 005°03'0 0.2
2018-Jul-14 02:51N 49°53' W 005°03'0 0.1
2018-Jul-14 02:24N 49°53' W 005°03'0 0.1
2018-Jul-14 02:00N 49°53' W 005°03'0 0.0
2018-Jul-14 01:27N 49°53' W 005°03'0 0.0
2018-Jul-14 00:57N 49°53' W 005°03'0 0.1
2018-Jul-14 00:27N 49°53' W 005°03'0 0.0
2018-Jul-13 23:57N 49°53' W 005°03'0 0.0
2018-Jul-13 23:21N 49°53' W 005°03'0 0.0
2018-Jul-13 23:00N 49°53' W 005°03'0 0.0
2018-Jul-13 22:15N 49°53' W 005°03'0 0.0
2018-Jul-13 22:00N 49°53' W 005°03'0 0.1
2018-Jul-13 21:21N 49°53' W 005°03'0 0.0
2018-Jul-13 20:57N 49°53' W 005°03'0 0.2
2018-Jul-13 20:27N 49°53' W 005°03'  
Track history (hours):
 
Tides and Currents Weather Stations Pressure Air Temp Water Temp Dewpoint Dewpoint Depression Visibility Wind Speed Wind Dir Waves Ship Positions

Koutalianos

Last reported at 2018-Jul-23 11:30 UTC. Time now 2018-Jul-23 11:52 UTC.
Position N 51°54' E 003°29'.

Length 230 m; draft 13.3 m.

Type: Cargo ship. MMSI: 636014865.

Date/timePositionNaut miles runAvg speedWind from/ knotsBaromVisibWave heightAir tempDewpointWater temp
2018-Jul-23 11:30N 51°54' E 003°29'0 0.0
2018-Jul-23 11:00N 51°54' E 003°29'0 0.0
2018-Jul-23 10:30N 51°54' E 003°29'0 0.0
2018-Jul-23 10:00N 51°54' E 003°29'0 0.0
2018-Jul-23 09:30N 51°54' E 003°29'0 0.0
2018-Jul-23 09:00N 51°54' E 003°29'0 0.1
2018-Jul-23 08:30N 51°54' E 003°29'0 0.2
2018-Jul-23 08:00N 51°54' E 003°29'0 0.2
2018-Jul-23 07:30N 51°54' E 003°28'0 0.1
2018-Jul-23 07:00N 51°54' E 003°28'0 0.0
2018-Jul-23 06:30N 51°54' E 003°28'0 0.0
2018-Jul-23 06:00N 51°54' E 003°28'0 0.0
2018-Jul-23 05:30N 51°54' E 003°28'0 0.0
2018-Jul-23 04:57N 51°54' E 003°28'0 0.0
2018-Jul-23 04:30N 51°54' E 003°28'0 0.0
2018-Jul-23 04:00N 51°54' E 003°28'0 0.0
2018-Jul-23 03:30N 51°54' E 003°28'0 0.1
2018-Jul-23 03:00N 51°54' E 003°28'0 0.2
2018-Jul-23 02:30N 51°54' E 003°28'0 0.1
2018-Jul-23 02:00N 51°54' E 003°28'0 0.1
2018-Jul-23 01:30N 51°54' E 003°29'0 0.0
2018-Jul-23 01:00N 51°54' E 003°29'0 0.0
2018-Jul-23 00:27N 51°54' E 003°29'0 0.0
2018-Jul-23 00:00N 51°54' E 003°29'0 0.0
2018-Jul-22 23:30N 51°54' E 003°29'0 0.0
2018-Jul-22 22:51N 51°54' E 003°29'0 0.0
2018-Jul-22 22:24N 51°54' E 003°29'0 0.0
2018-Jul-22 22:00N 51°54' E 003°29'0 0.0
2018-Jul-22 21:27N 51°54' E 003°29'0 0.0
2018-Jul-22 21:00N 51°54' E 003°29'0 0.0
2018-Jul-22 20:27N 51°54' E 003°29'0 0.2
2018-Jul-22 19:57N 51°54' E 003°29'0 0.2
2018-Jul-22 19:30N 51°54' E 003°28'0 0.1
2018-Jul-22 19:00N 51°54' E 003°28'0 0.0
2018-Jul-22 18:30N 51°54' E 003°28'0 0.0
2018-Jul-22 18:00N 51°54' E 003°28'0 0.0
2018-Jul-22 17:30N 51°54' E 003°28'0 0.0
2018-Jul-22 17:00N 51°54' E 003°28'0 0.0
2018-Jul-22 16:30N 51°54' E 003°28'0 0.0
2018-Jul-22 16:00N 51°54' E 003°28'0 0.0
2018-Jul-22 15:00N 51°54' E 003°28'0 0.0
2018-Jul-22 14:30N 51°54' E 003°28'0 0.2
2018-Jul-22 14:00N 51°54' E 003°28'0 0.3
2018-Jul-22 13:30N 51°54' E 003°28'0 0.0
2018-Jul-22 13:00N 51°54' E 003°29'0 0.0
2018-Jul-22 12:27N 51°54' E 003°29'0 0.0
2018-Jul-22 11:57N 51°54' E 003°29'0 0.0
2018-Jul-22 11:27N 51°54' E 003°29'0 0.0
2018-Jul-22 10:57N 51°54' E 003°29'0 0.0
2018-Jul-22 10:27N 51°54' E 003°29'0 0.0
2018-Jul-22 09:54N 51°54' E 003°29'0 0.0
2018-Jul-22 09:24N 51°54' E 003°29'0 0.0
2018-Jul-22 09:00N 51°54' E 003°29'0 0.0
2018-Jul-22 08:27N 51°54' E 003°29'0 0.0
2018-Jul-22 08:00N 51°54' E 003°29'0 0.1
2018-Jul-22 07:30N 51°54' E 003°29'0 0.2
2018-Jul-22 07:00N 51°54' E 003°29'0 0.2
2018-Jul-22 06:30N 51°54' E 003°28'0 0.1
2018-Jul-22 06:00N 51°54' E 003°28'0 0.0
2018-Jul-22 05:30N 51°54' E 003°28'0 0.0
2018-Jul-22 05:00N 51°54' E 003°28'0 0.1
2018-Jul-22 04:30N 51°54' E 003°28'1 1.2
2018-Jul-22 04:00N 51°54' E 003°27'2 3.3
2018-Jul-22 03:30N 51°54' E 003°25'3 6.3
2018-Jul-22 03:00N 51°54' E 003°20'5 9.7
2018-Jul-22 02:30N 51°52' E 003°12'4 7.7
2018-Jul-22 02:00N 51°52' E 003°06'4 7.8
2018-Jul-22 01:30N 51°51' E 002°60'4 8.0
2018-Jul-22 01:00N 51°50' E 002°54'4 8.2
2018-Jul-22 00:30N 51°49' E 002°47'4 8.3
2018-Jul-22 00:00N 51°47' E 002°41'4 8.2
2018-Jul-21 23:30N 51°45' E 002°36'4 8.3
2018-Jul-21 23:00N 51°42' E 002°30'4 8.6
2018-Jul-21 22:29N 51°39' E 002°25'4 8.9
2018-Jul-21 22:00N 51°36' E 002°21'5 9.1
2018-Jul-21 21:30N 51°32' E 002°16'5 9.3
2018-Jul-21 21:00N 51°29' E 002°11'5 9.4
2018-Jul-21 20:30N 51°25' E 002°06'5 9.3
2018-Jul-21 20:00N 51°22' E 002°01'5 9.4
2018-Jul-21 19:30N 51°18' E 001°56'5 9.4
2018-Jul-21 19:00N 51°15' E 001°51'5 9.4
2018-Jul-21 18:30N 51°11' E 001°46'5 9.2
2018-Jul-21 18:00N 51°07' E 001°42'5 9.3
2018-Jul-21 17:30N 51°03' E 001°39'510.2
2018-Jul-21 17:00N 50°59' E 001°34'510.4
2018-Jul-21 16:30N 50°55' E 001°29'5 9.8
2018-Jul-21 16:00N 50°51' E 001°25'4 8.9
2018-Jul-21 15:30N 50°46' E 001°23'4 8.4
2018-Jul-21 15:00N 50°42' E 001°21'4 8.8
2018-Jul-21 14:30N 50°39' E 001°16'9 8.7
2018-Jul-21 13:30N 50°33' E 001°06'4 8.8
2018-Jul-21 13:00N 50°31' E 001°00'4 8.7
2018-Jul-21 12:30N 50°29' E 000°54'4 8.7
2018-Jul-21 12:00N 50°28' E 000°47'5 9.3
2018-Jul-21 11:30N 50°27' E 000°40'6 9.3
2018-Jul-21 10:51N 50°25' E 000°31'5 9.1
2018-Jul-21 10:19N 50°23' E 000°24'3 9.0
2018-Jul-21 09:56N 50°22' E 000°19'4 8.9
2018-Jul-21 09:29N 50°21' E 000°13'4 8.7
2018-Jul-21 09:00N 50°20' E 000°06'4 8.4
2018-Jul-21 08:30N 50°19' E 000°00'4 8.4
2018-Jul-21 08:00N 50°18' W 000°06'4 8.5
2018-Jul-21 07:30N 50°17' W 000°13'4 8.6
2018-Jul-21 07:00N 50°16' W 000°19'4 8.5
2018-Jul-21 06:29N 50°14' W 000°26'4 8.5
2018-Jul-21 06:00N 50°14' W 000°32'5 9.0
2018-Jul-21 05:28N 50°12' W 000°39'4 9.6
2018-Jul-21 05:00N 50°11' W 000°46'6610.9
2018-Jul-20 22:57N 49°54' W 002°25'5 9.3
2018-Jul-20 22:24N 49°52' W 002°33'4 8.7
2018-Jul-20 21:57N 49°51' W 002°39'4 8.4
2018-Jul-20 21:31N 49°50' W 002°44'4 8.3
2018-Jul-20 21:00N 49°49' W 002°50'4 8.0
2018-Jul-20 20:30N 49°48' W 002°56'4 8.0
2018-Jul-20 20:00N 49°47' W 003°02'4 8.0
2018-Jul-20 19:30N 49°47' W 003°08'4 8.0
2018-Jul-20 19:00N 49°47' W 003°15'4 8.1
2018-Jul-20 18:30N 49°46' W 003°21'4 8.1
2018-Jul-20 18:00N 49°46' W 003°27'4 8.2
2018-Jul-20 17:30N 49°47' W 003°33'4 8.5
2018-Jul-20 17:00N 49°48' W 003°40'4 8.3
2018-Jul-20 16:30N 49°49' W 003°46'10 8.5
2018-Jul-20 15:17N 49°50' W 004°02'2 8.8
2018-Jul-20 15:00N 49°51' W 004°06'11 8.9
2018-Jul-20 13:50N 49°51' W 004°22'3 9.1
2018-Jul-20 13:30N 49°51' W 004°26'23 1.7
2018-Jul-19 23:57N 49°53' W 005°02'0 0.0
2018-Jul-19 22:57N 49°53' W 005°02'0 0.1
2018-Jul-19 21:39N 49°53' W 005°02'0 0.0
2018-Jul-19 21:30N 49°53' W 005°02'0 0.2
2018-Jul-19 20:57N 49°53' W 005°02'0 0.0
2018-Jul-19 14:21N 49°53' W 005°03'0 0.0
2018-Jul-19 01:15N 49°53' W 005°03'0 0.3
2018-Jul-19 01:00N 49°53' W 005°03'0 0.0
2018-Jul-18 18:57N 49°53' W 005°02'0 0.0
2018-Jul-18 12:27N 49°53' W 005°02'0 0.0
2018-Jul-18 00:03N 49°53' W 005°03'0 0.4
2018-Jul-17 23:57N 49°53' W 005°03'0 0.0
2018-Jul-17 11:24N 49°53' W 005°02'0 0.0
2018-Jul-17 04:18N 49°53' W 005°03'0 0.0
2018-Jul-17 04:00N 49°53' W 005°03'0 0.0
2018-Jul-16 23:24N 49°53' W 005°03'0 0.4
2018-Jul-16 22:57N 49°53' W 005°02'0 0.2
2018-Jul-16 22:00N 49°53' W 005°02'0 0.1
2018-Jul-16 21:27N 49°53' W 005°02'0 0.0
2018-Jul-16 11:06N 49°53' W 005°03'0 0.3
2018-Jul-16 10:57N 49°53' W 005°03'0 0.0
2018-Jul-16 04:57N 49°53' W 005°03'0 0.1
2018-Jul-16 03:36N 49°53' W 005°03'0 0.1
2018-Jul-16 03:15N 49°53' W 005°03'0 0.1
2018-Jul-16 03:00N 49°53' W 005°03'0 0.0
2018-Jul-16 02:30N 49°53' W 005°03'0 0.0
2018-Jul-16 02:00N 49°53' W 005°03'0 0.1
2018-Jul-16 01:30N 49°53' W 005°03'0 0.0
2018-Jul-16 00:57N 49°53' W 005°03'0 0.1
2018-Jul-16 00:24N 49°53' W 005°03'0 0.1
2018-Jul-15 23:57N 49°53' W 005°03'0 0.0
2018-Jul-15 23:18N 49°53' W 005°03'0 0.0
2018-Jul-15 23:00N 49°53' W 005°03'0 0.1
2018-Jul-15 22:30N 49°53' W 005°03'0 0.2
2018-Jul-15 21:03N 49°53' W 005°02'0 0.1
2018-Jul-15 16:09N 49°53' W 005°03'0 0.1
2018-Jul-15 15:51N 49°53' W 005°03'0 0.0
2018-Jul-15 12:24N 49°53' W 005°03'0 0.0
2018-Jul-15 12:00N 49°53' W 005°03'0 0.0
2018-Jul-15 11:27N 49°53' W 005°03'0 0.1
2018-Jul-15 10:09N 49°53' W 005°03'0 0.3
2018-Jul-15 09:57N 49°53' W 005°02'0 0.3
2018-Jul-15 09:27N 49°53' W 005°02'0 0.1
2018-Jul-15 08:54N 49°53' W 005°02'0 0.1
2018-Jul-15 08:30N 49°53' W 005°02'0 0.0
2018-Jul-15 06:54N 49°53' W 005°02'0 0.1
2018-Jul-15 06:30N 49°53' W 005°02'0 0.0
2018-Jul-15 05:42N 49°53' W 005°02'0 0.1
2018-Jul-15 05:30N 49°53' W 005°02'0 0.1
2018-Jul-15 04:51N 49°53' W 005°02'0 0.3
2018-Jul-15 04:24N 49°53' W 005°03'0 0.2
2018-Jul-15 03:57N 49°53' W 005°03'0 0.1
2018-Jul-15 03:30N 49°53' W 005°03'0 0.1
2018-Jul-15 03:00N 49°53' W 005°03'0 0.1
2018-Jul-15 02:27N 49°53' W 005°03'0 0.0
2018-Jul-15 02:00N 49°53' W 005°03'0 0.1
2018-Jul-15 01:30N 49°53' W 005°03'0 0.0
2018-Jul-15 00:54N 49°53' W 005°03'0 0.1
2018-Jul-15 00:24N 49°53' W 005°03'0 0.0
2018-Jul-15 00:00N 49°53' W 005°03'0 0.0
2018-Jul-14 23:27N 49°53' W 005°03'0 0.0
2018-Jul-14 23:00N 49°53' W 005°03'0 0.0
2018-Jul-14 22:30N 49°53' W 005°03'0 0.2
2018-Jul-14 20:57N 49°53' W 005°02'0 0.2
2018-Jul-14 20:30N 49°53' W 005°02'0 0.1
2018-Jul-14 20:00N 49°53' W 005°02'0 0.1
2018-Jul-14 12:57N 49°53' W 005°03'0 0.1
2018-Jul-14 08:39N 49°53' W 005°02'0 0.0
2018-Jul-14 04:21N 49°53' W 005°02'0 0.1
2018-Jul-14 03:45N 49°53' W 005°03'0 0.3
2018-Jul-14 03:24N 49°53' W 005°03'0 0.2
2018-Jul-14 02:51N 49°53' W 005°03'0 0.1
2018-Jul-14 02:24N 49°53' W 005°03'0 0.1
2018-Jul-14 02:00N 49°53' W 005°03'0 0.0
2018-Jul-14 01:27N 49°53' W 005°03'0 0.0
2018-Jul-14 00:57N 49°53' W 005°03'0 0.1
2018-Jul-14 00:27N 49°53' W 005°03'0 0.0
2018-Jul-13 23:57N 49°53' W 005°03'0 0.0
2018-Jul-13 23:21N 49°53' W 005°03'0 0.0
2018-Jul-13 23:00N 49°53' W 005°03'0 0.0
2018-Jul-13 22:15N 49°53' W 005°03'0 0.0
2018-Jul-13 22:00N 49°53' W 005°03'0 0.1
2018-Jul-13 21:21N 49°53' W 005°03'0 0.0
2018-Jul-13 20:57N 49°53' W 005°03'0 0.2
2018-Jul-13 20:27N 49°53' W 005°03'  

Dump ship's entire track history